Terminal Aerodrome Forecast
Issued by NWS

Home | Current Version | Previous Version | Text Only | Print | Product List | Glossary On
Versions: 1 2 3 4 5 6 7 8 9 10 11 12 13 14 15 16 17 18
000
FTUS44 KTSA 071751 CCA
TAFXNA
TAF COR
KXNA 071751Z 0718/0818 17005KT 6SM SHRA VCTS SCT020 BKN060CB
      TEMPO 0720/0723 2SM +RA BKN020 OVC040
     FM080000 32003KT 4SM RA BR SCT012 OVC035
      TEMPO 0800/0804 1SM +RA BKN012 OVC035
     FM080600 16008KT 3SM RA BR OVC015
     FM081200 20015KT 2SM -RA OVC010=

USA.gov is the U.S. government's official web portal to all federal, state and local government web resources and services.